sensor_id;sensor_type;location;lat;lon;timestamp;P1;durP1;ratioP1;P2;durP2;ratioP2
36241;SDS011;22283;42.748;12.732;2024-01-25T00:03:38;15.43;;;6.43;;
36241;SDS011;22283;42.748;12.732;2024-01-25T00:08:38;13.33;;;6.87;;
36241;SDS011;22283;42.748;12.732;2024-01-25T00:13:39;23.10;;;7.83;;
36241;SDS011;22283;42.748;12.732;2024-01-25T00:18:40;12.73;;;6.77;;
36241;SDS011;22283;42.748;12.732;2024-01-25T00:23:40;14.43;;;6.50;;
36241;SDS011;22283;42.748;12.732;2024-01-25T00:28:41;14.47;;;6.17;;
36241;SDS011;22283;42.748;12.732;2024-01-25T00:33:42;16.13;;;5.17;;
36241;SDS011;22283;42.748;12.732;2024-01-25T00:38:42;7.80;;;4.30;;
36241;SDS011;22283;42.748;12.732;2024-01-25T00:43:43;12.60;;;5.00;;
36241;SDS011;22283;42.748;12.732;2024-01-25T00:48:44;11.50;;;6.43;;
36241;SDS011;22283;42.748;12.732;2024-01-25T00:53:45;9.50;;;5.93;;
36241;SDS011;22283;42.748;12.732;2024-01-25T00:58:46;13.48;;;6.00;;
36241;SDS011;22283;42.748;12.732;2024-01-25T01:03:47;17.13;;;6.90;;
36241;SDS011;22283;42.748;12.732;2024-01-25T01:08:52;13.23;;;6.70;;
36241;SDS011;22283;42.748;12.732;2024-01-25T01:13:53;14.10;;;6.40;;
36241;SDS011;22283;42.748;12.732;2024-01-25T01:18:54;14.03;;;6.93;;
36241;SDS011;22283;42.748;12.732;2024-01-25T01:23:54;12.27;;;6.00;;
36241;SDS011;22283;42.748;12.732;2024-01-25T01:28:55;8.77;;;4.67;;
36241;SDS011;22283;42.748;12.732;2024-01-25T01:33:59;10.37;;;4.53;;
36241;SDS011;22283;42.748;12.732;2024-01-25T01:39:00;9.48;;;3.95;;
36241;SDS011;22283;42.748;12.732;2024-01-25T01:44:01;9.40;;;4.30;;
36241;SDS011;22283;42.748;12.732;2024-01-25T01:49:02;7.93;;;4.03;;
36241;SDS011;22283;42.748;12.732;2024-01-25T01:54:05;12.00;;;5.38;;
36241;SDS011;22283;42.748;12.732;2024-01-25T01:59:10;14.48;;;5.60;;
36241;SDS011;22283;42.748;12.732;2024-01-25T02:04:11;9.98;;;5.15;;
36241;SDS011;22283;42.748;12.732;2024-01-25T02:09:12;12.27;;;5.03;;
36241;SDS011;22283;42.748;12.732;2024-01-25T02:14:13;10.18;;;4.57;;
36241;SDS011;22283;42.748;12.732;2024-01-25T02:19:14;12.33;;;4.53;;
36241;SDS011;22283;42.748;12.732;2024-01-25T02:24:14;7.53;;;4.50;;
36241;SDS011;22283;42.748;12.732;2024-01-25T02:29:16;10.75;;;5.35;;
36241;SDS011;22283;42.748;12.732;2024-01-25T02:34:16;12.33;;;5.57;;
36241;SDS011;22283;42.748;12.732;2024-01-25T02:39:17;13.93;;;5.27;;
36241;SDS011;22283;42.748;12.732;2024-01-25T02:44:18;16.30;;;5.20;;
36241;SDS011;22283;42.748;12.732;2024-01-25T02:49:18;9.53;;;5.40;;
36241;SDS011;22283;42.748;12.732;2024-01-25T02:54:19;15.10;;;5.67;;
36241;SDS011;22283;42.748;12.732;2024-01-25T02:59:20;13.10;;;6.23;;
36241;SDS011;22283;42.748;12.732;2024-01-25T03:04:20;10.47;;;4.73;;
36241;SDS011;22283;42.748;12.732;2024-01-25T03:09:21;10.03;;;4.63;;
36241;SDS011;22283;42.748;12.732;2024-01-25T03:14:24;14.80;;;5.22;;
36241;SDS011;22283;42.748;12.732;2024-01-25T03:19:25;8.30;;;3.63;;
36241;SDS011;22283;42.748;12.732;2024-01-25T03:24:26;10.27;;;4.93;;
36241;SDS011;22283;42.748;12.732;2024-01-25T03:29:27;16.87;;;7.63;;
36241;SDS011;22283;42.748;12.732;2024-01-25T03:34:27;21.50;;;8.83;;
36241;SDS011;22283;42.748;12.732;2024-01-25T03:39:28;19.00;;;7.23;;
36241;SDS011;22283;42.748;12.732;2024-01-25T03:44:29;14.37;;;7.73;;
36241;SDS011;22283;42.748;12.732;2024-01-25T03:49:29;15.47;;;8.43;;
36241;SDS011;22283;42.748;12.732;2024-01-25T03:54:30;21.90;;;7.73;;
36241;SDS011;22283;42.748;12.732;2024-01-25T03:59:31;18.60;;;9.23;;
36241;SDS011;22283;42.748;12.732;2024-01-25T04:04:31;20.43;;;8.23;;
36241;SDS011;22283;42.748;12.732;2024-01-25T04:09:32;14.87;;;7.63;;
36241;SDS011;22283;42.748;12.732;2024-01-25T04:14:33;15.50;;;7.67;;
36241;SDS011;22283;42.748;12.732;2024-01-25T04:19:35;13.40;;;5.93;;
36241;SDS011;22283;42.748;12.732;2024-01-25T04:24:36;13.07;;;5.90;;
36241;SDS011;22283;42.748;12.732;2024-01-25T04:29:40;14.20;;;5.80;;
36241;SDS011;22283;42.748;12.732;2024-01-25T04:34:43;11.50;;;5.75;;
36241;SDS011;22283;42.748;12.732;2024-01-25T04:39:44;15.27;;;6.80;;
36241;SDS011;22283;42.748;12.732;2024-01-25T04:44:45;16.73;;;6.43;;
36241;SDS011;22283;42.748;12.732;2024-01-25T04:49:45;15.73;;;8.23;;
36241;SDS011;22283;42.748;12.732;2024-01-25T04:54:46;12.63;;;6.80;;
36241;SDS011;22283;42.748;12.732;2024-01-25T04:59:46;15.43;;;8.93;;
36241;SDS011;22283;42.748;12.732;2024-01-25T05:04:47;21.50;;;8.93;;
36241;SDS011;22283;42.748;12.732;2024-01-25T05:09:47;26.13;;;8.40;;
36241;SDS011;22283;42.748;12.732;2024-01-25T05:14:48;15.00;;;8.47;;
36241;SDS011;22283;42.748;12.732;2024-01-25T05:19:49;14.90;;;7.37;;
36241;SDS011;22283;42.748;12.732;2024-01-25T05:24:49;21.47;;;8.33;;
36241;SDS011;22283;42.748;12.732;2024-01-25T05:29:50;23.23;;;7.73;;
36241;SDS011;22283;42.748;12.732;2024-01-25T05:34:51;16.70;;;8.47;;
36241;SDS011;22283;42.748;12.732;2024-01-25T05:39:51;21.33;;;8.83;;
36241;SDS011;22283;42.748;12.732;2024-01-25T05:44:52;25.87;;;9.67;;
36241;SDS011;22283;42.748;12.732;2024-01-25T05:49:53;16.80;;;9.47;;
36241;SDS011;22283;42.748;12.732;2024-01-25T05:54:53;19.90;;;7.83;;
36241;SDS011;22283;42.748;12.732;2024-01-25T05:59:54;23.00;;;6.67;;
36241;SDS011;22283;42.748;12.732;2024-01-25T06:04:55;19.27;;;8.00;;
36241;SDS011;22283;42.748;12.732;2024-01-25T06:09:58;21.80;;;8.82;;
36241;SDS011;22283;42.748;12.732;2024-01-25T06:14:59;25.50;;;10.03;;
36241;SDS011;22283;42.748;12.732;2024-01-25T06:19:59;19.07;;;10.40;;
36241;SDS011;22283;42.748;12.732;2024-01-25T06:25:00;18.23;;;9.20;;
36241;SDS011;22283;42.748;12.732;2024-01-25T06:30:01;25.50;;;10.23;;
36241;SDS011;22283;42.748;12.732;2024-01-25T06:35:01;17.97;;;9.23;;
36241;SDS011;22283;42.748;12.732;2024-01-25T06:40:03;16.50;;;8.43;;
36241;SDS011;22283;42.748;12.732;2024-01-25T06:45:05;21.65;;;9.68;;
36241;SDS011;22283;42.748;12.732;2024-01-25T06:50:06;19.40;;;10.03;;
36241;SDS011;22283;42.748;12.732;2024-01-25T06:55:07;42.00;;;13.30;;
36241;SDS011;22283;42.748;12.732;2024-01-25T07:00:08;25.55;;;11.07;;
36241;SDS011;22283;42.748;12.732;2024-01-25T07:05:11;23.60;;;10.13;;
36241;SDS011;22283;42.748;12.732;2024-01-25T07:10:11;26.17;;;10.97;;
36241;SDS011;22283;42.748;12.732;2024-01-25T07:15:12;26.67;;;10.27;;
36241;SDS011;22283;42.748;12.732;2024-01-25T07:20:13;32.50;;;12.83;;
36241;SDS011;22283;42.748;12.732;2024-01-25T07:25:14;20.53;;;11.77;;
36241;SDS011;22283;42.748;12.732;2024-01-25T07:30:15;39.65;;;14.57;;
36241;SDS011;22283;42.748;12.732;2024-01-25T07:35:23;27.92;;;13.18;;
36241;SDS011;22283;42.748;12.732;2024-01-25T07:40:24;35.15;;;13.88;;
36241;SDS011;22283;42.748;12.732;2024-01-25T07:45:25;29.90;;;15.33;;
36241;SDS011;22283;42.748;12.732;2024-01-25T07:50:25;38.77;;;15.97;;
36241;SDS011;22283;42.748;12.732;2024-01-25T07:55:26;40.33;;;17.33;;
36241;SDS011;22283;42.748;12.732;2024-01-25T08:00:27;45.30;;;16.65;;
36241;SDS011;22283;42.748;12.732;2024-01-25T08:05:28;36.70;;;14.20;;
36241;SDS011;22283;42.748;12.732;2024-01-25T08:10:28;38.20;;;22.33;;
36241;SDS011;22283;42.748;12.732;2024-01-25T08:15:29;28.70;;;17.43;;
36241;SDS011;22283;42.748;12.732;2024-01-25T08:20:30;32.30;;;19.17;;
36241;SDS011;22283;42.748;12.732;2024-01-25T08:25:31;24.90;;;14.65;;
36241;SDS011;22283;42.748;12.732;2024-01-25T08:30:32;31.00;;;14.27;;
36241;SDS011;22283;42.748;12.732;2024-01-25T08:35:32;33.87;;;18.27;;
36241;SDS011;22283;42.748;12.732;2024-01-25T08:40:33;34.63;;;18.53;;
36241;SDS011;22283;42.748;12.732;2024-01-25T08:45:34;30.73;;;17.07;;
36241;SDS011;22283;42.748;12.732;2024-01-25T08:50:35;50.90;;;17.90;;
36241;SDS011;22283;42.748;12.732;2024-01-25T08:55:36;33.75;;;17.52;;
36241;SDS011;22283;42.748;12.732;2024-01-25T09:00:37;32.40;;;16.83;;
36241;SDS011;22283;42.748;12.732;2024-01-25T09:05:37;28.30;;;16.27;;
36241;SDS011;22283;42.748;12.732;2024-01-25T09:10:45;29.75;;;16.52;;
36241;SDS011;22283;42.748;12.732;2024-01-25T09:15:45;33.23;;;20.70;;
36241;SDS011;22283;42.748;12.732;2024-01-25T09:20:47;29.65;;;20.17;;
36241;SDS011;22283;42.748;12.732;2024-01-25T09:25:48;34.08;;;22.02;;
36241;SDS011;22283;42.748;12.732;2024-01-25T09:30:49;32.73;;;21.43;;
36241;SDS011;22283;42.748;12.732;2024-01-25T09:35:49;37.73;;;21.60;;
36241;SDS011;22283;42.748;12.732;2024-01-25T09:40:50;32.23;;;21.90;;
36241;SDS011;22283;42.748;12.732;2024-01-25T09:45:54;35.00;;;21.45;;
36241;SDS011;22283;42.748;12.732;2024-01-25T09:50:55;38.58;;;21.05;;
36241;SDS011;22283;42.748;12.732;2024-01-25T09:56:00;30.23;;;20.53;;
36241;SDS011;22283;42.748;12.732;2024-01-25T10:01:11;34.87;;;20.60;;
36241;SDS011;22283;42.748;12.732;2024-01-25T10:06:13;31.58;;;18.70;;
36241;SDS011;22283;42.748;12.732;2024-01-25T10:11:15;45.30;;;26.45;;
36241;SDS011;22283;42.748;12.732;2024-01-25T10:16:17;31.90;;;18.65;;
36241;SDS011;22283;42.748;12.732;2024-01-25T10:26:20;20.40;;;13.60;;
36241;SDS011;22283;42.748;12.732;2024-01-25T10:31:24;20.17;;;13.33;;
36241;SDS011;22283;42.748;12.732;2024-01-25T10:36:28;22.38;;;13.90;;
36241;SDS011;22283;42.748;12.732;2024-01-25T10:41:29;19.10;;;13.70;;
36241;SDS011;22283;42.748;12.732;2024-01-25T10:46:31;23.60;;;13.75;;
36241;SDS011;22283;42.748;12.732;2024-01-25T10:51:33;21.65;;;13.30;;
36241;SDS011;22283;42.748;12.732;2024-01-25T10:56:46;21.60;;;14.17;;
36241;SDS011;22283;42.748;12.732;2024-01-25T11:01:47;27.70;;;14.68;;
36241;SDS011;22283;42.748;12.732;2024-01-25T11:06:48;24.53;;;14.37;;
36241;SDS011;22283;42.748;12.732;2024-01-25T11:11:49;18.10;;;11.17;;
36241;SDS011;22283;42.748;12.732;2024-01-25T11:16:54;18.02;;;11.20;;
36241;SDS011;22283;42.748;12.732;2024-01-25T11:21:55;19.13;;;10.40;;
36241;SDS011;22283;42.748;12.732;2024-01-25T11:26:55;17.37;;;10.57;;
36241;SDS011;22283;42.748;12.732;2024-01-25T11:31:56;21.03;;;11.97;;
36241;SDS011;22283;42.748;12.732;2024-01-25T11:36:57;23.20;;;12.13;;
36241;SDS011;22283;42.748;12.732;2024-01-25T11:41:58;26.15;;;15.95;;
36241;SDS011;22283;42.748;12.732;2024-01-25T11:46:59;30.17;;;15.13;;
36241;SDS011;22283;42.748;12.732;2024-01-25T11:51:59;20.00;;;11.93;;
36241;SDS011;22283;42.748;12.732;2024-01-25T11:57:02;20.55;;;11.57;;
36241;SDS011;22283;42.748;12.732;2024-01-25T12:02:03;30.50;;;14.32;;
36241;SDS011;22283;42.748;12.732;2024-01-25T12:07:04;24.23;;;12.50;;
36241;SDS011;22283;42.748;12.732;2024-01-25T12:12:05;22.57;;;11.47;;
36241;SDS011;22283;42.748;12.732;2024-01-25T12:17:07;23.20;;;9.80;;
36241;SDS011;22283;42.748;12.732;2024-01-25T12:22:08;17.98;;;10.75;;
36241;SDS011;22283;42.748;12.732;2024-01-25T12:27:09;25.70;;;10.87;;
36241;SDS011;22283;42.748;12.732;2024-01-25T12:32:10;18.85;;;10.32;;
36241;SDS011;22283;42.748;12.732;2024-01-25T12:37:11;19.07;;;11.27;;
36241;SDS011;22283;42.748;12.732;2024-01-25T12:42:11;21.40;;;11.63;;
36241;SDS011;22283;42.748;12.732;2024-01-25T12:47:12;24.03;;;12.80;;
36241;SDS011;22283;42.748;12.732;2024-01-25T12:52:14;24.60;;;13.98;;
36241;SDS011;22283;42.748;12.732;2024-01-25T12:57:15;26.08;;;15.48;;
36241;SDS011;22283;42.748;12.732;2024-01-25T13:02:16;33.83;;;16.50;;
36241;SDS011;22283;42.748;12.732;2024-01-25T13:07:17;33.17;;;17.63;;
36241;SDS011;22283;42.748;12.732;2024-01-25T13:12:17;25.83;;;15.50;;
36241;SDS011;22283;42.748;12.732;2024-01-25T13:17:18;26.17;;;14.80;;
36241;SDS011;22283;42.748;12.732;2024-01-25T13:22:21;26.02;;;17.00;;
36241;SDS011;22283;42.748;12.732;2024-01-25T13:27:24;25.02;;;17.50;;
36241;SDS011;22283;42.748;12.732;2024-01-25T13:32:25;33.80;;;17.00;;
36241;SDS011;22283;42.748;12.732;2024-01-25T13:37:25;29.93;;;16.97;;
36241;SDS011;22283;42.748;12.732;2024-01-25T13:42:26;29.83;;;15.37;;
36241;SDS011;22283;42.748;12.732;2024-01-25T13:47:27;25.87;;;13.33;;
36241;SDS011;22283;42.748;12.732;2024-01-25T13:52:28;28.23;;;11.07;;
36241;SDS011;22283;42.748;12.732;2024-01-25T13:57:29;19.77;;;12.40;;
36241;SDS011;22283;42.748;12.732;2024-01-25T14:02:31;21.53;;;11.70;;
36241;SDS011;22283;42.748;12.732;2024-01-25T14:07:32;22.75;;;10.98;;
36241;SDS011;22283;42.748;12.732;2024-01-25T14:12:33;20.77;;;10.80;;
36241;SDS011;22283;42.748;12.732;2024-01-25T14:17:34;26.23;;;11.37;;
36241;SDS011;22283;42.748;12.732;2024-01-25T14:22:36;22.25;;;12.18;;
36241;SDS011;22283;42.748;12.732;2024-01-25T14:27:37;24.30;;;12.67;;
36241;SDS011;22283;42.748;12.732;2024-01-25T14:32:37;24.33;;;12.80;;
36241;SDS011;22283;42.748;12.732;2024-01-25T14:37:38;27.47;;;13.00;;
36241;SDS011;22283;42.748;12.732;2024-01-25T14:42:39;22.90;;;11.83;;
36241;SDS011;22283;42.748;12.732;2024-01-25T14:47:39;29.33;;;13.80;;
36241;SDS011;22283;42.748;12.732;2024-01-25T14:52:40;30.30;;;12.77;;
36241;SDS011;22283;42.748;12.732;2024-01-25T14:57:40;27.00;;;13.37;;
36241;SDS011;22283;42.748;12.732;2024-01-25T15:02:41;23.87;;;13.53;;
36241;SDS011;22283;42.748;12.732;2024-01-25T15:07:42;24.80;;;13.03;;
36241;SDS011;22283;42.748;12.732;2024-01-25T15:12:43;19.10;;;11.17;;
36241;SDS011;22283;42.748;12.732;2024-01-25T15:17:43;25.03;;;12.00;;
36241;SDS011;22283;42.748;12.732;2024-01-25T15:22:45;19.13;;;11.75;;
36241;SDS011;22283;42.748;12.732;2024-01-25T15:27:45;23.63;;;12.13;;
36241;SDS011;22283;42.748;12.732;2024-01-25T15:32:46;26.50;;;12.43;;
36241;SDS011;22283;42.748;12.732;2024-01-25T15:37:47;22.90;;;12.63;;
36241;SDS011;22283;42.748;12.732;2024-01-25T15:42:47;24.80;;;10.83;;
36241;SDS011;22283;42.748;12.732;2024-01-25T15:47:53;28.02;;;13.20;;
36241;SDS011;22283;42.748;12.732;2024-01-25T15:52:54;28.43;;;14.83;;
36241;SDS011;22283;42.748;12.732;2024-01-25T15:57:55;31.53;;;13.97;;
36241;SDS011;22283;42.748;12.732;2024-01-25T16:02:55;37.73;;;19.30;;
36241;SDS011;22283;42.748;12.732;2024-01-25T16:07:56;35.03;;;17.50;;
36241;SDS011;22283;42.748;12.732;2024-01-25T16:12:57;34.67;;;19.57;;
36241;SDS011;22283;42.748;12.732;2024-01-25T16:17:57;52.10;;;28.80;;
36241;SDS011;22283;42.748;12.732;2024-01-25T16:22:58;43.57;;;20.77;;
36241;SDS011;22283;42.748;12.732;2024-01-25T16:27:59;45.40;;;20.37;;
36241;SDS011;22283;42.748;12.732;2024-01-25T16:33:00;44.40;;;20.77;;
36241;SDS011;22283;42.748;12.732;2024-01-25T16:38:01;41.40;;;17.27;;
36241;SDS011;22283;42.748;12.732;2024-01-25T16:43:02;42.00;;;18.00;;
36241;SDS011;22283;42.748;12.732;2024-01-25T16:48:03;39.07;;;17.53;;
36241;SDS011;22283;42.748;12.732;2024-01-25T16:53:04;38.97;;;17.38;;
36241;SDS011;22283;42.748;12.732;2024-01-25T16:58:04;43.47;;;18.27;;
36241;SDS011;22283;42.748;12.732;2024-01-25T17:03:05;30.60;;;17.73;;
36241;SDS011;22283;42.748;12.732;2024-01-25T17:08:06;42.60;;;19.20;;
36241;SDS011;22283;42.748;12.732;2024-01-25T17:13:06;42.63;;;21.10;;
36241;SDS011;22283;42.748;12.732;2024-01-25T17:18:07;41.27;;;23.10;;
36241;SDS011;22283;42.748;12.732;2024-01-25T17:23:07;41.43;;;18.83;;
36241;SDS011;22283;42.748;12.732;2024-01-25T17:28:08;39.07;;;21.70;;
36241;SDS011;22283;42.748;12.732;2024-01-25T17:33:08;46.97;;;27.47;;
36241;SDS011;22283;42.748;12.732;2024-01-25T17:38:09;43.13;;;27.03;;
36241;SDS011;22283;42.748;12.732;2024-01-25T17:43:11;37.42;;;24.08;;
36241;SDS011;22283;42.748;12.732;2024-01-25T17:48:11;34.27;;;21.80;;
36241;SDS011;22283;42.748;12.732;2024-01-25T17:53:12;50.57;;;21.27;;
36241;SDS011;22283;42.748;12.732;2024-01-25T17:58:13;40.33;;;20.70;;
36241;SDS011;22283;42.748;12.732;2024-01-25T18:03:13;43.97;;;23.77;;
36241;SDS011;22283;42.748;12.732;2024-01-25T18:08:14;45.53;;;24.10;;
36241;SDS011;22283;42.748;12.732;2024-01-25T18:13:15;40.87;;;25.83;;
36241;SDS011;22283;42.748;12.732;2024-01-25T18:18:15;45.40;;;25.10;;
36241;SDS011;22283;42.748;12.732;2024-01-25T18:23:16;36.87;;;24.23;;
36241;SDS011;22283;42.748;12.732;2024-01-25T18:28:17;51.90;;;28.93;;
36241;SDS011;22283;42.748;12.732;2024-01-25T18:38:19;49.47;;;29.90;;
36241;SDS011;22283;42.748;12.732;2024-01-25T18:43:20;55.80;;;28.53;;
36241;SDS011;22283;42.748;12.732;2024-01-25T18:48:23;44.15;;;26.58;;
36241;SDS011;22283;42.748;12.732;2024-01-25T18:53:23;47.73;;;27.47;;
36241;SDS011;22283;42.748;12.732;2024-01-25T18:58:25;52.15;;;29.70;;
36241;SDS011;22283;42.748;12.732;2024-01-25T19:03:26;46.43;;;29.17;;
36241;SDS011;22283;42.748;12.732;2024-01-25T19:08:28;54.20;;;26.23;;
36241;SDS011;22283;42.748;12.732;2024-01-25T19:13:28;47.70;;;25.27;;
36241;SDS011;22283;42.748;12.732;2024-01-25T19:18:29;38.27;;;24.83;;
36241;SDS011;22283;42.748;12.732;2024-01-25T19:23:30;50.60;;;26.47;;
36241;SDS011;22283;42.748;12.732;2024-01-25T19:28:31;43.03;;;24.77;;
36241;SDS011;22283;42.748;12.732;2024-01-25T19:33:31;40.53;;;21.37;;
36241;SDS011;22283;42.748;12.732;2024-01-25T19:38:32;43.17;;;27.07;;
36241;SDS011;22283;42.748;12.732;2024-01-25T19:43:33;42.47;;;25.63;;
36241;SDS011;22283;42.748;12.732;2024-01-25T19:48:34;47.40;;;25.77;;
36241;SDS011;22283;42.748;12.732;2024-01-25T19:53:34;46.43;;;23.73;;
36241;SDS011;22283;42.748;12.732;2024-01-25T19:58:35;43.23;;;25.23;;
36241;SDS011;22283;42.748;12.732;2024-01-25T20:03:37;42.72;;;25.00;;
36241;SDS011;22283;42.748;12.732;2024-01-25T20:08:37;48.07;;;28.10;;
36241;SDS011;22283;42.748;12.732;2024-01-25T20:13:38;45.50;;;26.43;;
36241;SDS011;22283;42.748;12.732;2024-01-25T20:18:39;43.63;;;25.67;;
36241;SDS011;22283;42.748;12.732;2024-01-25T20:23:40;56.47;;;25.70;;
36241;SDS011;22283;42.748;12.732;2024-01-25T20:28:41;45.63;;;26.70;;
36241;SDS011;22283;42.748;12.732;2024-01-25T20:33:42;42.03;;;24.13;;
36241;SDS011;22283;42.748;12.732;2024-01-25T20:38:42;41.53;;;23.37;;
36241;SDS011;22283;42.748;12.732;2024-01-25T20:43:43;43.77;;;24.13;;
36241;SDS011;22283;42.748;12.732;2024-01-25T20:48:44;39.30;;;20.67;;
36241;SDS011;22283;42.748;12.732;2024-01-25T20:53:46;41.10;;;23.98;;
36241;SDS011;22283;42.748;12.732;2024-01-25T20:58:48;46.13;;;24.23;;
36241;SDS011;22283;42.748;12.732;2024-01-25T21:03:50;42.05;;;24.23;;
36241;SDS011;22283;42.748;12.732;2024-01-25T21:08:51;39.80;;;24.97;;
36241;SDS011;22283;42.748;12.732;2024-01-25T21:13:52;40.83;;;21.93;;
36241;SDS011;22283;42.748;12.732;2024-01-25T21:18:53;47.57;;;22.73;;
36241;SDS011;22283;42.748;12.732;2024-01-25T21:23:55;44.63;;;21.75;;
36241;SDS011;22283;42.748;12.732;2024-01-25T21:28:55;36.67;;;20.03;;
36241;SDS011;22283;42.748;12.732;2024-01-25T21:33:56;44.47;;;20.57;;
36241;SDS011;22283;42.748;12.732;2024-01-25T21:38:57;38.63;;;20.77;;
36241;SDS011;22283;42.748;12.732;2024-01-25T21:43:58;87.13;;;47.43;;
36241;SDS011;22283;42.748;12.732;2024-01-25T21:48:58;41.97;;;21.03;;
36241;SDS011;22283;42.748;12.732;2024-01-25T21:53:59;45.50;;;26.93;;
36241;SDS011;22283;42.748;12.732;2024-01-25T21:59:00;56.90;;;31.47;;
36241;SDS011;22283;42.748;12.732;2024-01-25T22:04:00;54.27;;;29.87;;
36241;SDS011;22283;42.748;12.732;2024-01-25T22:09:01;57.57;;;30.87;;
36241;SDS011;22283;42.748;12.732;2024-01-25T22:14:02;52.67;;;31.15;;
36241;SDS011;22283;42.748;12.732;2024-01-25T22:19:03;104.17;;;55.40;;
36241;SDS011;22283;42.748;12.732;2024-01-25T22:24:04;63.40;;;30.77;;
36241;SDS011;22283;42.748;12.732;2024-01-25T22:34:06;46.58;;;24.20;;
36241;SDS011;22283;42.748;12.732;2024-01-25T22:39:07;48.30;;;24.27;;
36241;SDS011;22283;42.748;12.732;2024-01-25T22:44:07;42.63;;;23.00;;
36241;SDS011;22283;42.748;12.732;2024-01-25T22:49:08;38.33;;;21.33;;
36241;SDS011;22283;42.748;12.732;2024-01-25T22:54:09;39.60;;;20.80;;
36241;SDS011;22283;42.748;12.732;2024-01-25T22:59:11;42.17;;;19.77;;
36241;SDS011;22283;42.748;12.732;2024-01-25T23:04:12;41.47;;;21.52;;
36241;SDS011;22283;42.748;12.732;2024-01-25T23:09:13;33.20;;;19.27;;
36241;SDS011;22283;42.748;12.732;2024-01-25T23:19:15;42.90;;;18.85;;
36241;SDS011;22283;42.748;12.732;2024-01-25T23:24:16;49.60;;;24.33;;
36241;SDS011;22283;42.748;12.732;2024-01-25T23:29:16;43.47;;;23.27;;
36241;SDS011;22283;42.748;12.732;2024-01-25T23:34:17;38.27;;;19.57;;
36241;SDS011;22283;42.748;12.732;2024-01-25T23:39:18;40.30;;;20.20;;
36241;SDS011;22283;42.748;12.732;2024-01-25T23:44:19;37.03;;;19.53;;
36241;SDS011;22283;42.748;12.732;2024-01-25T23:49:20;46.23;;;20.83;;
36241;SDS011;22283;42.748;12.732;2024-01-25T23:54:21;35.30;;;19.83;;
